Time;durP1;ratioP1;P1;durP2;ratioP2;P2;SDS_P1;SDS_P2;PMS_P1;PMS_P2;Temp;Humidity;BMP_temperature;BMP_pressure;BME280_temperature;BME280_humidity;BME280_pressure;Samples;Min_cycle;Max_cycle;Signal;HPM_P1;HPM_P2
2021/03/04 00:00:38;;;;;;;3.23;1.60;;;10.90;98.00;;;;;;5068560;28;20640;-64
2021/03/04 00:03:04;;;;;;;3.00;1.90;;;10.90;98.20;;;;;;5073135;28;20185;-64
2021/03/04 00:05:30;;;;;;;2.00;0.87;;;10.90;98.20;;;;;;5081656;28;20196;-65
2021/03/04 00:07:56;;;;;;;1.70;0.70;;;10.80;98.20;;;;;;5071609;28;20439;-65
2021/03/04 00:10:23;;;;;;;1.50;0.20;;;10.80;98.20;;;;;;5067930;28;20263;-64
2021/03/04 00:12:49;;;;;;;1.87;0.70;;;10.80;98.10;;;;;;5072825;28;20458;-64
2021/03/04 00:15:18;;;;;;;11.40;5.23;;;10.80;98.20;;;;;;5067038;28;20512;-65
2021/03/04 00:17:46;;;;;;;1.50;0.20;;;10.80;98.00;;;;;;5067763;28;20438;-64
2021/03/04 00:20:23;;;;;;;1.63;0.60;;;10.80;98.00;;;;;;5073554;28;20434;-64
2021/03/04 00:22:48;;;;;;;2.10;0.80;;;10.80;98.00;;;;;;5071474;28;20437;-63
2021/03/04 00:25:15;;;;;;;6.07;4.07;;;10.80;97.90;;;;;;5077787;28;20466;-64
2021/03/04 00:27:41;;;;;;;3.43;2.00;;;10.80;97.70;;;;;;5072781;28;20184;-64
2021/03/04 00:30:08;;;;;;;1.50;0.20;;;10.80;97.80;;;;;;5062380;28;20956;-64
2021/03/04 00:32:34;;;;;;;6.43;3.80;;;10.80;97.90;;;;;;5062406;28;20430;-64
2021/03/04 00:34:59;;;;;;;2.37;1.73;;;10.80;97.50;;;;;;5065581;28;20518;-64
2021/03/04 00:37:25;;;;;;;1.50;0.20;;;10.80;97.30;;;;;;5051945;28;20671;-64
2021/03/04 00:39:50;;;;;;;4.87;0.47;;;10.80;97.50;;;;;;5085337;28;20214;-63
2021/03/04 00:42:16;;;;;;;5.40;2.90;;;10.80;97.20;;;;;;5066952;28;20188;-64
2021/03/04 00:44:41;;;;;;;6.73;4.67;;;10.80;97.10;;;;;;5075689;28;20266;-64
2021/03/04 00:47:07;;;;;;;1.90;1.27;;;10.80;97.00;;;;;;5086729;28;20265;-63
2021/03/04 00:49:33;;;;;;;2.03;0.60;;;10.80;97.10;;;;;;5069271;28;20523;-64
2021/03/04 00:51:58;;;;;;;2.87;1.00;;;10.80;97.00;;;;;;5079996;28;20215;-64
2021/03/04 00:54:24;;;;;;;5.63;2.57;;;10.80;97.10;;;;;;5086395;28;20192;-64
2021/03/04 00:56:49;;;;;;;1.60;0.30;;;10.80;97.10;;;;;;5074529;28;20211;-63
2021/03/04 00:59:15;;;;;;;1.60;0.30;;;10.80;97.20;;;;;;5079582;28;20735;-64
2021/03/04 01:01:41;;;;;;;4.73;2.10;;;10.80;97.20;;;;;;5080368;28;20285;-64
2021/03/04 01:04:06;;;;;;;1.60;0.43;;;10.80;97.10;;;;;;5068126;28;20189;-65
2021/03/04 01:06:32;;;;;;;10.60;3.90;;;10.80;96.90;;;;;;5082885;28;21118;-64
2021/03/04 01:08:57;;;;;;;2.90;1.43;;;10.80;97.00;;;;;;5076641;28;20184;-64
2021/03/04 01:11:23;;;;;;;1.50;0.20;;;10.70;97.00;;;;;;5072591;28;20196;-64
2021/03/04 01:13:48;;;;;;;2.73;1.53;;;10.80;97.20;;;;;;5084358;28;20176;-63
2021/03/04 01:16:14;;;;;;;2.47;1.90;;;10.80;97.10;;;;;;5073080;28;20291;-64
2021/03/04 01:18:39;;;;;;;4.20;2.17;;;10.80;97.10;;;;;;5055300;28;20226;-64
2021/03/04 01:21:06;;;;;;;1.60;0.20;;;10.80;96.90;;;;;;5083350;28;20248;-65
2021/03/04 01:23:31;;;;;;;1.50;0.20;;;10.80;97.00;;;;;;5074796;28;20196;-64
2021/03/04 01:25:57;;;;;;;1.60;0.30;;;10.70;96.90;;;;;;5083952;28;20504;-64
2021/03/04 01:28:23;;;;;;;1.53;0.30;;;10.70;96.80;;;;;;5091932;28;20340;-65
2021/03/04 01:30:49;;;;;;;1.50;0.20;;;10.70;96.90;;;;;;5073783;28;20189;-64
2021/03/04 01:33:15;;;;;;;1.50;0.20;;;10.70;96.90;;;;;;5060053;28;20435;-64
2021/03/04 01:35:40;;;;;;;1.50;0.20;;;10.60;96.60;;;;;;5082706;28;20466;-64
2021/03/04 01:38:06;;;;;;;1.50;0.20;;;10.60;96.80;;;;;;5071986;28;20975;-64
2021/03/04 01:40:32;;;;;;;1.60;0.37;;;10.70;96.80;;;;;;5073719;28;20185;-63
2021/03/04 01:42:57;;;;;;;1.50;0.20;;;10.60;96.70;;;;;;5080548;28;20545;-63
2021/03/04 01:45:23;;;;;;;1.70;0.77;;;10.60;96.50;;;;;;5069898;28;20205;-64
2021/03/04 01:47:50;;;;;;;3.83;1.90;;;10.60;96.70;;;;;;5082033;28;20191;-63
2021/03/04 01:50:17;;;;;;;1.50;0.20;;;10.60;96.60;;;;;;5072289;28;20554;-63
2021/03/04 01:52:43;;;;;;;6.80;4.53;;;10.60;96.60;;;;;;5070390;28;20450;-64
2021/03/04 01:55:10;;;;;;;4.40;2.33;;;10.60;96.70;;;;;;5081612;28;20458;-64
2021/03/04 01:57:37;;;;;;;1.60;0.40;;;10.60;96.70;;;;;;5083176;28;20430;-64
2021/03/04 02:00:08;;;;;;;1.50;0.20;;;10.60;96.80;;;;;;5077745;28;20466;-64
2021/03/04 02:02:49;;;;;;;1.70;0.70;;;10.60;96.90;;;;;;5074747;28;20435;-64
2021/03/04 02:05:17;;;;;;;1.50;0.20;;;10.60;96.80;;;;;;5065993;28;20447;-64
2021/03/04 02:07:58;;;;;;;4.83;2.00;;;10.60;96.80;;;;;;5073635;28;20447;-64
2021/03/04 02:10:45;;;;;;;1.50;0.20;;;10.60;96.80;;;;;;5078293;28;20445;-64
2021/03/04 02:13:23;;;;;;;1.80;0.40;;;10.60;96.80;;;;;;5077945;28;20935;-63
2021/03/04 02:15:54;;;;;;;1.50;0.20;;;10.60;96.60;;;;;;5072122;28;20461;-65
2021/03/04 02:18:24;;;;;;;3.57;2.77;;;10.60;96.60;;;;;;5073939;28;20545;-63
2021/03/04 02:21:18;;;;;;;1.80;1.03;;;10.60;96.40;;;;;;5074921;28;20426;-64
2021/03/04 02:24:17;;;;;;;1.57;0.37;;;10.50;96.50;;;;;;5072335;28;20468;-66
2021/03/04 02:26:43;;;;;;;4.77;2.23;;;10.50;96.60;;;;;;5067039;28;20447;-64
2021/03/04 02:29:13;;;;;;;2.10;1.47;;;10.50;96.50;;;;;;5072819;28;20518;-63
2021/03/04 02:31:41;;;;;;;3.50;1.70;;;10.50;96.70;;;;;;5078212;28;20182;-64
2021/03/04 02:34:09;;;;;;;1.50;0.20;;;10.50;96.70;;;;;;5074307;28;20530;-64
2021/03/04 02:36:37;;;;;;;3.00;1.13;;;10.50;96.70;;;;;;5077354;28;20450;-65
2021/03/04 02:39:07;;;;;;;1.50;0.20;;;10.40;96.50;;;;;;5075816;28;20458;-64
2021/03/04 02:41:35;;;;;;;5.03;2.37;;;10.50;96.60;;;;;;5068307;28;20481;-63
2021/03/04 02:44:04;;;;;;;4.63;2.80;;;10.40;96.80;;;;;;5070875;28;20976;-64
2021/03/04 02:46:32;;;;;;;1.70;0.70;;;10.40;96.60;;;;;;5080789;28;20820;-64
2021/03/04 02:48:58;;;;;;;1.50;0.20;;;10.40;96.70;;;;;;5069324;28;20473;-63
2021/03/04 02:51:24;;;;;;;2.87;2.40;;;10.40;96.40;;;;;;5063011;28;20961;-64
2021/03/04 02:53:50;;;;;;;1.50;0.20;;;10.40;96.50;;;;;;5068567;28;20275;-63
2021/03/04 02:56:16;;;;;;;1.73;0.53;;;10.30;96.50;;;;;;5073767;28;20494;-64
2021/03/04 02:58:44;;;;;;;1.50;0.20;;;10.30;96.50;;;;;;5073490;28;20947;-63
2021/03/04 03:01:10;;;;;;;1.50;0.20;;;10.30;96.40;;;;;;5077540;28;20533;-64
2021/03/04 03:03:36;;;;;;;2.17;1.97;;;10.30;96.50;;;;;;5081743;28;20572;-64
2021/03/04 03:06:03;;;;;;;1.50;0.20;;;10.20;96.60;;;;;;5083264;28;20188;-64
2021/03/04 03:08:29;;;;;;;6.03;3.13;;;10.20;96.60;;;;;;5068067;28;20449;-64
2021/03/04 03:10:56;;;;;;;1.50;0.20;;;10.20;96.60;;;;;;5077355;28;20464;-64
2021/03/04 03:13:22;;;;;;;5.93;1.47;;;10.20;96.80;;;;;;5077379;28;20512;-64
2021/03/04 03:15:50;;;;;;;2.47;0.97;;;10.20;96.80;;;;;;5064507;28;20542;-64
2021/03/04 03:18:16;;;;;;;1.50;0.20;;;10.10;96.70;;;;;;5079286;28;20737;-64
2021/03/04 03:20:41;;;;;;;1.57;0.40;;;10.00;96.80;;;;;;5078012;28;20429;-63
2021/03/04 03:23:07;;;;;;;2.00;1.50;;;10.00;96.90;;;;;;5070346;28;20694;-64
2021/03/04 03:25:32;;;;;;;1.60;0.30;;;10.00;96.80;;;;;;5072830;28;20201;-64
2021/03/04 03:27:58;;;;;;;6.47;3.40;;;9.90;97.30;;;;;;5065353;28;20188;-64
2021/03/04 03:30:25;;;;;;;2.77;1.57;;;9.90;97.40;;;;;;5071857;28;20609;-63
2021/03/04 03:33:00;;;;;;;1.50;0.20;;;9.90;97.40;;;;;;5077084;28;20265;-64
2021/03/04 03:35:27;;;;;;;1.53;0.20;;;9.90;97.40;;;;;;5078369;28;20919;-64
2021/03/04 03:37:55;;;;;;;1.53;0.20;;;9.90;97.50;;;;;;5070600;28;20945;-64
2021/03/04 03:40:24;;;;;;;2.27;1.63;;;9.80;97.60;;;;;;5076562;28;20786;-65
2021/03/04 03:42:50;;;;;;;1.50;0.20;;;9.90;97.70;;;;;;5067681;28;20426;-64
2021/03/04 03:45:21;;;;;;;1.60;0.50;;;9.80;97.70;;;;;;5072959;28;20495;-64
2021/03/04 03:47:47;;;;;;;2.03;1.30;;;9.80;97.80;;;;;;5075776;28;20510;-64
2021/03/04 03:50:15;;;;;;;1.70;0.57;;;9.80;97.80;;;;;;5077568;28;21043;-63
2021/03/04 03:52:42;;;;;;;1.50;0.20;;;9.80;97.80;;;;;;5069225;28;20426;-63
2021/03/04 03:55:08;;;;;;;12.03;4.47;;;9.80;97.90;;;;;;5078798;28;20450;-65
2021/03/04 03:57:35;;;;;;;1.50;0.20;;;9.80;97.80;;;;;;5064599;28;20431;-64
2021/03/04 04:00:02;;;;;;;1.53;0.20;;;9.80;97.80;;;;;;5076483;28;20447;-63
2021/03/04 04:02:29;;;;;;;1.50;0.20;;;9.80;97.80;;;;;;5072164;28;20453;-64
2021/03/04 04:04:55;;;;;;;10.30;5.83;;;9.80;97.80;;;;;;5062701;28;20448;-64
2021/03/04 04:07:21;;;;;;;9.43;4.60;;;9.80;97.80;;;;;;5076501;28;20798;-64
2021/03/04 04:09:48;;;;;;;1.67;0.47;;;9.70;98.00;;;;;;5081026;28;20457;-64
2021/03/04 04:12:13;;;;;;;7.27;0.93;;;9.70;98.10;;;;;;5082808;28;20481;-64
2021/03/04 04:14:39;;;;;;;2.03;1.27;;;9.70;98.20;;;;;;5095988;28;20439;-64
2021/03/04 04:17:06;;;;;;;1.50;0.30;;;9.60;98.30;;;;;;5076890;28;20215;-64
2021/03/04 04:19:32;;;;;;;7.50;4.00;;;9.60;98.40;;;;;;5070479;28;20468;-64
2021/03/04 04:21:57;;;;;;;1.60;0.33;;;9.60;98.40;;;;;;5076852;28;20443;-63
2021/03/04 04:24:23;;;;;;;3.13;2.30;;;9.60;98.60;;;;;;5077216;28;20439;-64
2021/03/04 04:26:49;;;;;;;10.00;4.97;;;9.50;98.70;;;;;;5074542;28;20299;-64
2021/03/04 04:29:14;;;;;;;1.50;0.20;;;9.50;98.70;;;;;;5058256;28;20462;-64
2021/03/04 04:31:40;;;;;;;10.40;6.60;;;9.60;98.90;;;;;;5075034;28;20261;-64
2021/03/04 04:34:06;;;;;;;9.10;6.03;;;9.50;99.30;;;;;;5073363;28;20656;-64
2021/03/04 04:36:31;;;;;;;9.07;2.97;;;9.50;99.00;;;;;;5073705;28;20460;-63
2021/03/04 04:38:57;;;;;;;3.43;2.73;;;9.50;99.10;;;;;;5070872;28;20230;-64
2021/03/04 04:41:23;;;;;;;1.50;0.20;;;9.50;99.30;;;;;;5062631;28;20185;-63
2021/03/04 04:43:49;;;;;;;1.50;0.20;;;9.40;99.30;;;;;;5076986;28;20270;-63
2021/03/04 04:46:14;;;;;;;2.43;1.57;;;9.50;99.30;;;;;;5068232;28;20553;-63
2021/03/04 04:48:40;;;;;;;1.60;0.30;;;9.50;99.20;;;;;;5080573;28;20704;-64
2021/03/04 04:51:06;;;;;;;3.40;1.03;;;9.50;99.30;;;;;;5071762;28;20188;-64
2021/03/04 04:53:31;;;;;;;1.70;0.50;;;9.50;99.30;;;;;;5073955;28;20263;-64
2021/03/04 04:55:57;;;;;;;5.43;3.13;;;9.50;99.50;;;;;;5070266;28;20396;-63
2021/03/04 04:58:22;;;;;;;11.97;11.17;;;9.50;99.40;;;;;;5069257;28;20216;-63
2021/03/04 05:00:48;;;;;;;3.50;2.83;;;9.50;99.70;;;;;;5071241;28;20525;-64
2021/03/04 05:03:13;;;;;;;1.60;0.30;;;9.50;99.50;;;;;;5074636;28;20184;-65
2021/03/04 05:05:40;;;;;;;1.60;0.30;;;9.50;99.40;;;;;;5063374;28;20797;-63
2021/03/04 05:08:06;;;;;;;1.50;0.20;;;9.50;99.50;;;;;;5070842;28;20195;-63
2021/03/04 05:10:31;;;;;;;1.50;0.20;;;9.50;99.40;;;;;;5075629;28;20422;-63
2021/03/04 05:12:57;;;;;;;1.50;0.20;;;9.50;99.60;;;;;;5063463;28;20282;-64
2021/03/04 05:15:23;;;;;;;1.70;0.57;;;9.60;99.40;;;;;;5075203;28;20224;-63
2021/03/04 05:17:48;;;;;;;1.50;0.20;;;9.50;99.30;;;;;;5075599;28;20180;-64
2021/03/04 05:20:14;;;;;;;1.50;0.20;;;9.50;99.30;;;;;;5065138;28;20201;-64
2021/03/04 05:22:40;;;;;;;1.50;0.30;;;9.50;99.40;;;;;;5070673;28;20188;-64
2021/03/04 05:25:06;;;;;;;3.93;3.50;;;9.50;99.50;;;;;;5076303;28;20539;-63
2021/03/04 05:27:31;;;;;;;1.60;0.30;;;9.50;99.40;;;;;;5069354;28;20184;-64
2021/03/04 05:29:57;;;;;;;1.70;0.83;;;9.50;99.50;;;;;;5071340;28;20971;-63
2021/03/04 05:32:22;;;;;;;2.50;2.10;;;9.40;99.60;;;;;;5070056;28;20185;-63
2021/03/04 05:34:48;;;;;;;1.70;0.70;;;9.40;99.70;;;;;;5073736;28;20509;-63
2021/03/04 05:37:13;;;;;;;1.50;0.20;;;9.30;99.90;;;;;;5076564;28;20528;-64
2021/03/04 05:39:39;;;;;;;3.63;3.07;;;9.30;99.80;;;;;;5070455;28;20203;-64
2021/03/04 05:42:06;;;;;;;1.50;0.20;;;9.30;99.90;;;;;;5073839;28;20216;-63
2021/03/04 05:44:32;;;;;;;1.50;0.20;;;9.30;99.90;;;;;;5084883;28;20176;-64
2021/03/04 05:46:58;;;;;;;1.53;0.30;;;9.30;99.90;;;;;;5053624;28;20458;-63
2021/03/04 05:49:27;;;;;;;2.27;1.30;;;9.30;99.90;;;;;;5079072;28;20443;-64
2021/03/04 05:51:55;;;;;;;4.43;3.23;;;9.40;99.90;;;;;;5076689;28;20531;-63
2021/03/04 05:54:21;;;;;;;1.50;0.20;;;9.30;99.90;;;;;;5068559;28;20773;-63
2021/03/04 05:56:48;;;;;;;7.33;5.30;;;9.30;99.90;;;;;;5081958;28;21004;-62
2021/03/04 05:59:14;;;;;;;3.90;2.30;;;9.30;99.90;;;;;;5081985;28;21004;-63
2021/03/04 06:01:42;;;;;;;1.90;1.50;;;9.30;99.90;;;;;;5072503;28;21029;-62
2021/03/04 06:04:07;;;;;;;1.60;0.30;;;9.20;99.90;;;;;;5082838;28;20454;-62
2021/03/04 06:06:33;;;;;;;5.53;1.70;;;9.30;99.90;;;;;;5072593;28;20454;-62
2021/03/04 06:09:00;;;;;;;1.50;0.20;;;9.20;99.90;;;;;;5062398;28;20209;-62
2021/03/04 06:11:26;;;;;;;7.37;4.53;;;9.20;99.90;;;;;;5059058;28;20176;-62
2021/03/04 06:13:51;;;;;;;3.60;2.20;;;9.20;99.90;;;;;;5077836;28;20522;-63
2021/03/04 06:16:17;;;;;;;2.50;1.47;;;9.20;99.90;;;;;;5071171;28;20214;-63
2021/03/04 06:18:44;;;;;;;3.60;1.73;;;9.20;99.90;;;;;;5087501;28;20794;-63
2021/03/04 06:21:19;;;;;;;2.20;1.03;;;9.20;99.90;;;;;;5068870;28;20177;-63
2021/03/04 06:23:45;;;;;;;1.50;0.20;;;9.10;99.90;;;;;;5077143;28;20428;-63
2021/03/04 06:26:10;;;;;;;1.70;0.40;;;9.10;99.90;;;;;;5072985;28;20462;-63
2021/03/04 06:28:36;;;;;;;1.57;0.20;;;9.10;99.90;;;;;;5077231;28;20194;-63
2021/03/04 06:31:01;;;;;;;6.53;4.83;;;9.10;99.90;;;;;;5073526;28;20192;-63
2021/03/04 06:33:36;;;;;;;1.50;0.20;;;9.10;99.90;;;;;;5085532;28;20187;-64
2021/03/04 06:36:16;;;;;;;1.60;0.40;;;9.20;99.90;;;;;;5066145;28;20252;-63
2021/03/04 06:38:52;;;;;;;1.50;0.20;;;9.20;99.90;;;;;;5067371;28;20489;-64
2021/03/04 06:41:19;;;;;;;1.50;0.20;;;9.20;99.90;;;;;;5072556;28;20521;-63
2021/03/04 06:43:45;;;;;;;1.50;0.20;;;9.30;99.90;;;;;;5065096;28;20459;-63
2021/03/04 06:46:12;;;;;;;1.50;0.20;;;9.30;99.90;;;;;;5072496;28;20463;-63
2021/03/04 06:48:38;;;;;;;1.50;0.20;;;9.30;99.90;;;;;;5085956;28;20442;-63
2021/03/04 06:51:05;;;;;;;1.50;0.20;;;9.40;99.90;;;;;;5068914;28;20454;-63
2021/03/04 06:53:31;;;;;;;5.70;2.90;;;9.40;99.90;;;;;;5077863;28;20203;-64
2021/03/04 06:56:04;;;;;;;2.63;2.10;;;9.40;99.90;;;;;;5071579;28;20477;-63
2021/03/04 06:58:32;;;;;;;3.40;1.70;;;9.40;99.90;;;;;;5066455;28;20473;-65
2021/03/04 07:01:04;;;;;;;9.47;5.60;;;9.30;99.90;;;;;;5069744;28;20430;-63
2021/03/04 07:03:40;;;;;;;2.27;0.77;;;9.30;99.90;;;;;;5070025;28;20434;-63
2021/03/04 07:06:10;;;;;;;27.83;4.90;;;9.30;99.90;;;;;;5067350;28;20447;-64
2021/03/04 07:08:41;;;;;;;1.60;0.40;;;9.30;99.90;;;;;;5071406;28;20462;-65
2021/03/04 07:11:18;;;;;;;12.83;4.93;;;9.30;99.90;;;;;;5076666;28;20827;-64
2021/03/04 07:13:44;;;;;;;4.53;1.70;;;9.30;99.90;;;;;;5051367;28;20426;-66
2021/03/04 07:16:19;;;;;;;3.53;2.60;;;9.20;99.90;;;;;;5067860;28;20506;-65
2021/03/04 07:18:52;;;;;;;1.53;0.20;;;9.20;99.90;;;;;;5068682;28;20523;-65
2021/03/04 07:21:19;;;;;;;4.67;2.30;;;9.20;99.90;;;;;;5070771;28;20461;-65
2021/03/04 07:23:46;;;;;;;1.57;0.20;;;9.20;99.90;;;;;;5077131;28;20515;-66
2021/03/04 07:26:13;;;;;;;1.70;0.47;;;9.30;99.90;;;;;;5098483;28;20488;-66
2021/03/04 07:28:43;;;;;;;1.50;0.20;;;9.30;99.90;;;;;;5089077;28;20502;-67
2021/03/04 07:31:10;;;;;;;1.70;0.73;;;9.30;99.90;;;;;;5086952;28;20473;-66
2021/03/04 07:33:38;;;;;;;1.50;0.20;;;9.30;99.90;;;;;;5089099;28;20431;-66
2021/03/04 07:36:06;;;;;;;4.60;2.90;;;9.30;99.90;;;;;;5073427;28;20522;-67
2021/03/04 07:38:33;;;;;;;6.70;4.53;;;9.30;99.90;;;;;;5068962;28;21129;-65
2021/03/04 07:41:10;;;;;;;1.50;0.30;;;9.30;99.90;;;;;;5065403;28;20440;-65
2021/03/04 07:43:52;;;;;;;1.60;0.60;;;9.30;99.90;;;;;;5067111;28;20525;-66
2021/03/04 07:46:30;;;;;;;1.50;0.20;;;9.30;99.90;;;;;;5083420;28;20459;-66
2021/03/04 07:48:57;;;;;;;1.50;0.20;;;9.30;99.90;;;;;;5088007;28;20450;-66
2021/03/04 07:51:22;;;;;;;2.47;1.67;;;9.20;99.90;;;;;;5097374;28;20466;-66
2021/03/04 07:53:48;;;;;;;1.60;0.60;;;9.30;99.90;;;;;;5095141;28;20442;-66
2021/03/04 07:56:27;;;;;;;1.97;0.83;;;9.20;99.90;;;;;;5097414;28;20285;-66
2021/03/04 07:59:16;;;;;;;3.97;0.93;;;9.20;99.90;;;;;;5081904;28;20883;-64
2021/03/04 08:01:42;;;;;;;2.00;0.77;;;9.20;99.90;;;;;;5068054;28;20449;-65
2021/03/04 08:04:22;;;;;;;8.77;6.53;;;9.20;99.90;;;;;;5084856;28;20848;-64
2021/03/04 08:06:49;;;;;;;6.67;3.50;;;9.30;99.90;;;;;;5079767;28;20477;-65
2021/03/04 08:09:32;;;;;;;2.73;1.73;;;9.30;99.90;;;;;;5069869;28;20442;-65
2021/03/04 08:12:15;;;;;;;1.60;0.40;;;9.40;99.90;;;;;;5077036;28;20965;-65
2021/03/04 08:14:52;;;;;;;6.40;4.40;;;9.40;99.90;;;;;;5089193;28;20433;-66
2021/03/04 08:17:18;;;;;;;7.40;4.43;;;9.40;99.90;;;;;;5087176;28;20469;-66
2021/03/04 08:19:45;;;;;;;1.83;0.97;;;9.50;99.90;;;;;;5075957;28;20957;-66
2021/03/04 08:22:11;;;;;;;1.50;0.20;;;9.50;99.90;;;;;;5063219;28;20548;-66
2021/03/04 08:24:38;;;;;;;1.70;0.50;;;9.60;99.90;;;;;;5071208;28;20442;-65
2021/03/04 08:27:06;;;;;;;6.83;5.10;;;9.60;99.90;;;;;;5081356;28;20201;-65
2021/03/04 08:29:32;;;;;;;1.50;0.20;;;9.60;99.90;;;;;;5075387;28;20487;-65
2021/03/04 08:32:02;;;;;;;1.50;0.20;;;9.70;99.90;;;;;;5066185;28;20455;-66
2021/03/04 08:34:37;;;;;;;1.50;0.20;;;9.80;99.90;;;;;;5076286;28;21018;-66
2021/03/04 08:37:04;;;;;;;11.70;5.43;;;9.90;99.90;;;;;;5069795;28;20956;-65
2021/03/04 08:39:34;;;;;;;2.30;1.23;;;9.80;99.90;;;;;;5072304;28;20470;-65
2021/03/04 08:42:08;;;;;;;4.37;2.90;;;9.90;99.90;;;;;;5082408;28;20443;-65
2021/03/04 08:44:34;;;;;;;2.27;0.93;;;9.80;99.90;;;;;;5067275;28;20444;-65
2021/03/04 08:47:00;;;;;;;1.50;0.20;;;9.80;99.90;;;;;;5065717;28;20463;-66
2021/03/04 08:49:25;;;;;;;1.60;0.40;;;9.90;99.90;;;;;;5077542;28;20500;-66
2021/03/04 08:51:52;;;;;;;2.77;2.07;;;9.90;99.90;;;;;;5071281;28;20192;-65
2021/03/04 08:54:28;;;;;;;1.50;0.30;;;10.00;99.90;;;;;;5064970;28;20197;-66
2021/03/04 08:56:56;;;;;;;1.50;0.20;;;10.10;99.60;;;;;;5077272;28;20512;-65
2021/03/04 08:59:23;;;;;;;15.33;6.67;;;10.10;99.50;;;;;;5073645;28;20516;-66
2021/03/04 09:01:48;;;;;;;1.50;0.20;;;10.20;99.20;;;;;;5067791;28;20450;-65
2021/03/04 09:04:22;;;;;;;11.70;8.80;;;10.30;99.20;;;;;;5074526;28;20438;-66
2021/03/04 09:06:48;;;;;;;1.50;0.20;;;10.30;99.10;;;;;;5066435;28;20200;-66
2021/03/04 09:09:24;;;;;;;10.87;4.80;;;10.40;99.00;;;;;;5073158;28;20454;-66
2021/03/04 09:11:50;;;;;;;9.67;8.03;;;10.40;99.10;;;;;;5072132;28;20590;-66
2021/03/04 09:14:16;;;;;;;5.73;2.77;;;10.40;99.10;;;;;;5076509;28;20570;-66
2021/03/04 09:16:44;;;;;;;1.50;0.20;;;10.30;99.30;;;;;;5080107;28;20458;-66
2021/03/04 09:19:43;;;;;;;9.97;4.07;;;10.30;99.50;;;;;;5080095;28;20818;-65
2021/03/04 09:22:11;;;;;;;5.20;3.70;;;10.30;99.70;;;;;;5026616;28;20526;-66
2021/03/04 09:24:40;;;;;;;1.50;0.20;;;10.40;99.90;;;;;;5074554;28;20525;-66
2021/03/04 09:27:08;;;;;;;14.70;6.00;;;10.40;99.80;;;;;;5068576;28;20459;-66
2021/03/04 09:29:38;;;;;;;11.70;4.73;;;10.40;99.90;;;;;;5083330;28;20444;-66
2021/03/04 09:32:04;;;;;;;4.53;0.83;;;10.50;99.90;;;;;;5075735;28;20826;-66
2021/03/04 09:34:38;;;;;;;4.77;3.10;;;10.40;99.90;;;;;;5082851;28;20512;-65
2021/03/04 09:37:12;;;;;;;5.30;2.83;;;10.50;99.90;;;;;;5068340;28;20454;-65
2021/03/04 09:39:45;;;;;;;2.53;1.20;;;10.50;99.80;;;;;;5067756;28;20467;-65
2021/03/04 09:42:16;;;;;;;5.70;4.90;;;10.60;99.70;;;;;;5069735;28;20500;-66
2021/03/04 09:44:54;;;;;;;13.90;9.13;;;10.70;99.80;;;;;;5077007;28;21062;-66
2021/03/04 09:47:30;;;;;;;3.87;1.67;;;10.80;99.60;;;;;;5070580;28;20443;-66
2021/03/04 09:49:58;;;;;;;9.20;5.90;;;10.80;99.60;;;;;;5075613;28;20439;-66
2021/03/04 09:52:24;;;;;;;4.43;2.63;;;10.80;99.50;;;;;;5072489;28;20941;-65
2021/03/04 09:54:51;;;;;;;1.80;0.57;;;10.90;99.60;;;;;;5071584;28;20480;-65
2021/03/04 09:57:20;;;;;;;2.23;1.40;;;10.90;99.60;;;;;;5075535;28;20436;-66
2021/03/04 09:59:50;;;;;;;1.60;0.20;;;11.00;99.70;;;;;;5072301;28;20948;-66
2021/03/04 10:02:16;;;;;;;6.33;4.70;;;11.00;99.40;;;;;;5070644;28;20517;-66
2021/03/04 10:05:03;;;;;;;3.67;2.50;;;11.10;99.40;;;;;;5084713;28;20440;-66
2021/03/04 10:07:32;;;;;;;18.27;8.13;;;11.20;99.20;;;;;;5066323;28;20846;-66
2021/03/04 10:09:59;;;;;;;8.27;4.97;;;11.30;99.20;;;;;;5066245;28;20447;-66
2021/03/04 10:12:25;;;;;;;12.77;7.73;;;11.40;99.10;;;;;;5054577;28;20475;-65
2021/03/04 10:14:53;;;;;;;2.33;0.87;;;11.50;98.90;;;;;;5063773;28;20439;-66
2021/03/04 10:17:19;;;;;;;21.20;20.30;;;11.50;99.00;;;;;;5069622;28;20431;-66
2021/03/04 10:19:45;;;;;;;2.83;2.50;;;11.60;98.90;;;;;;5083968;28;20965;-65
2021/03/04 10:22:12;;;;;;;17.23;6.13;;;11.80;99.10;;;;;;5070824;28;20433;-67
2021/03/04 10:24:37;;;;;;;1.80;1.10;;;11.80;98.60;;;;;;5062242;28;20200;-66
2021/03/04 10:27:05;;;;;;;2.07;1.50;;;11.90;98.60;;;;;;5083440;28;20516;-66
2021/03/04 10:29:31;;;;;;;3.23;2.93;;;11.90;98.40;;;;;;5065853;28;20185;-66
2021/03/04 10:31:57;;;;;;;5.10;1.03;;;11.90;98.60;;;;;;5076085;28;20472;-66
2021/03/04 10:34:23;;;;;;;5.30;2.90;;;11.90;98.70;;;;;;5066641;28;20926;-65
2021/03/04 10:36:50;;;;;;;2.07;1.07;;;11.90;98.70;;;;;;5071871;28;20463;-66
2021/03/04 10:39:17;;;;;;;9.23;5.73;;;11.90;98.70;;;;;;5077532;28;20467;-66
2021/03/04 10:41:44;;;;;;;6.43;5.80;;;11.80;98.60;;;;;;5069139;28;20448;-65
2021/03/04 10:44:13;;;;;;;10.93;5.70;;;11.80;98.80;;;;;;5064871;28;20784;-66
2021/03/04 10:46:39;;;;;;;5.80;4.37;;;11.80;98.80;;;;;;5068044;28;20462;-66
2021/03/04 10:49:06;;;;;;;1.60;0.20;;;11.80;98.60;;;;;;5075627;28;20811;-66
2021/03/04 10:51:33;;;;;;;6.27;4.20;;;11.80;98.60;;;;;;5074698;28;20651;-65
2021/03/04 10:53:59;;;;;;;9.53;6.87;;;11.90;98.70;;;;;;5082309;28;20443;-64
2021/03/04 10:56:25;;;;;;;13.93;5.60;;;11.90;98.40;;;;;;5063536;28;20463;-65
2021/03/04 10:58:51;;;;;;;16.77;9.30;;;11.90;98.20;;;;;;5062951;28;20204;-65
2021/03/04 11:01:17;;;;;;;10.43;7.50;;;12.00;98.20;;;;;;5087285;28;20439;-66
2021/03/04 11:03:42;;;;;;;8.53;6.10;;;12.00;98.20;;;;;;5085503;28;20430;-66
2021/03/04 11:06:13;;;;;;;3.20;1.80;;;12.00;97.90;;;;;;5086047;28;20263;-65
2021/03/04 11:08:39;;;;;;;5.73;3.40;;;12.10;98.10;;;;;;5088572;28;20212;-65
2021/03/04 11:11:04;;;;;;;1.50;0.20;;;12.20;98.00;;;;;;5090343;28;20762;-65
2021/03/04 11:13:31;;;;;;;7.73;3.93;;;12.30;97.90;;;;;;5073492;28;20439;-66
2021/03/04 11:15:57;;;;;;;14.07;8.93;;;12.30;97.70;;;;;;5083081;28;20225;-65
2021/03/04 11:18:23;;;;;;;9.43;5.77;;;12.40;97.60;;;;;;5071143;28;20463;-66
2021/03/04 11:20:49;;;;;;;2.77;1.73;;;12.50;97.50;;;;;;5079102;28;20284;-65
2021/03/04 11:23:15;;;;;;;2.27;0.87;;;12.60;97.40;;;;;;5081778;28;20188;-65
2021/03/04 11:25:40;;;;;;;18.30;8.90;;;12.80;97.30;;;;;;5073662;28;20497;-65
2021/03/04 11:28:08;;;;;;;2.97;0.90;;;12.90;96.80;;;;;;5075551;28;20180;-65
2021/03/04 11:30:34;;;;;;;17.00;10.20;;;12.90;96.80;;;;;;5080958;28;20172;-65
2021/03/04 11:33:03;;;;;;;10.30;6.97;;;12.90;96.60;;;;;;5073985;28;20426;-61
2021/03/04 11:35:29;;;;;;;9.40;5.33;;;12.80;96.60;;;;;;5081191;28;20450;-65
2021/03/04 11:37:55;;;;;;;5.53;2.30;;;12.90;96.80;;;;;;5078546;28;20444;-66
2021/03/04 11:40:20;;;;;;;16.33;5.03;;;12.90;96.60;;;;;;5062290;28;20972;-65
2021/03/04 11:42:46;;;;;;;5.30;3.70;;;12.90;96.50;;;;;;5101568;28;20208;-66
2021/03/04 11:45:12;;;;;;;11.40;6.33;;;12.90;96.60;;;;;;5088034;28;20339;-65
2021/03/04 11:47:38;;;;;;;15.27;9.87;;;12.90;96.60;;;;;;5079582;28;20443;-65
2021/03/04 11:50:05;;;;;;;8.20;3.80;;;12.80;96.70;;;;;;5097289;28;20437;-64
2021/03/04 11:52:30;;;;;;;3.00;2.53;;;12.90;96.80;;;;;;5078168;28;20185;-64
2021/03/04 11:54:55;;;;;;;3.87;2.10;;;12.90;96.80;;;;;;5077655;28;20437;-65
2021/03/04 11:57:22;;;;;;;8.73;5.27;;;13.00;96.70;;;;;;5083035;28;20540;-66
2021/03/04 11:59:47;;;;;;;5.33;2.07;;;13.10;96.60;;;;;;5072113;28;20245;-64
2021/03/04 12:02:13;;;;;;;9.67;4.83;;;13.20;96.50;;;;;;5061829;28;20918;-64
2021/03/04 12:04:38;;;;;;;4.50;3.20;;;13.20;96.30;;;;;;5066781;28;20172;-64
2021/03/04 12:07:04;;;;;;;8.53;6.47;;;13.20;96.20;;;;;;5079588;28;20201;-66
2021/03/04 12:09:29;;;;;;;6.93;3.80;;;13.30;96.10;;;;;;5088058;28;20686;-65
2021/03/04 12:11:55;;;;;;;1.80;0.90;;;13.20;96.30;;;;;;5092236;28;20214;-65
2021/03/04 12:14:20;;;;;;;15.83;7.77;;;13.20;96.30;;;;;;5083534;28;20199;-65
2021/03/04 12:16:46;;;;;;;1.57;0.37;;;13.20;96.40;;;;;;5104335;22;20211;-56
2021/03/04 12:19:12;;;;;;;1.50;0.20;;;13.30;96.50;;;;;;5065452;28;20208;-56
2021/03/04 12:21:38;;;;;;;1.70;0.60;;;13.30;96.60;;;;;;5069651;28;20543;-56
2021/03/04 12:24:04;;;;;;;11.50;6.70;;;13.40;96.40;;;;;;5071755;28;20181;-56
2021/03/04 12:26:30;;;;;;;10.90;7.13;;;13.40;96.40;;;;;;5068847;28;20439;-56
2021/03/04 12:28:55;;;;;;;15.90;11.43;;;13.40;96.20;;;;;;5055368;28;20451;-56
2021/03/04 12:31:21;;;;;;;3.63;3.07;;;13.40;96.20;;;;;;5069617;28;20682;-57
2021/03/04 12:33:46;;;;;;;5.00;3.07;;;13.40;96.30;;;;;;5062140;28;20184;-56
2021/03/04 12:36:12;;;;;;;4.90;2.83;;;13.30;96.30;;;;;;5066288;28;20698;-56
2021/03/04 12:38:37;;;;;;;8.20;5.70;;;13.40;96.50;;;;;;5062309;28;20295;-56
2021/03/04 12:41:02;;;;;;;1.50;0.20;;;13.50;96.50;;;;;;5063578;28;20196;-56
2021/03/04 12:43:28;;;;;;;5.13;3.07;;;13.50;96.50;;;;;;5072926;28;20255;-57
2021/03/04 12:45:54;;;;;;;3.60;1.83;;;13.50;96.50;;;;;;5070583;28;20179;-56
2021/03/04 12:48:19;;;;;;;8.53;5.27;;;13.50;96.40;;;;;;5064802;28;20228;-56
2021/03/04 12:50:45;;;;;;;5.80;2.87;;;13.50;96.30;;;;;;5072719;28;20721;-55
2021/03/04 12:53:10;;;;;;;2.57;1.33;;;13.70;96.40;;;;;;5066818;28;20181;-55